createdAt,value
2023-03-18T00:00:09.321Z,27.9180
2023-03-18T00:00:20.390Z,27.9180
2023-03-18T00:00:31.675Z,27.9290
2023-03-18T00:00:43.008Z,27.9630
2023-03-18T00:00:54.156Z,27.9570
2023-03-18T00:01:05.212Z,27.9470
2023-03-18T00:01:16.283Z,27.9520
2023-03-18T00:01:27.339Z,27.9350
2023-03-18T00:01:38.408Z,27.9470
2023-03-18T00:01:49.519Z,27.9290
2023-03-18T00:02:00.550Z,27.9180
2023-03-18T00:02:11.622Z,27.9320
2023-03-18T00:02:22.695Z,27.9270
2023-03-18T00:02:33.772Z,27.9420
2023-03-18T00:02:44.971Z,27.9370
2023-03-18T00:02:56.056Z,27.9420
2023-03-18T00:03:07.093Z,27.9370
2023-03-18T00:03:18.224Z,27.9270
2023-03-18T00:03:29.361Z,27.9530
2023-03-18T00:03:40.489Z,27.9320
2023-03-18T00:03:51.745Z,27.9370
2023-03-18T00:04:02.951Z,27.9320
2023-03-18T00:04:14.010Z,27.9320
2023-03-18T00:04:25.075Z,27.9270
2023-03-18T00:04:36.158Z,27.9270
2023-03-18T00:04:47.212Z,27.9320
2023-03-18T00:04:58.268Z,27.9320
2023-03-18T00:05:09.321Z,27.9320
2023-03-18T00:05:20.411Z,27.9270
2023-03-18T00:05:31.429Z,27.9270
2023-03-18T00:05:42.553Z,27.9210
2023-03-18T00:05:53.611Z,27.9160
2023-03-18T00:06:04.681Z,27.9210
2023-03-18T00:06:15.729Z,27.9160
2023-03-18T00:06:26.800Z,27.9160
2023-03-18T00:06:37.885Z,27.9090
2023-03-18T00:06:48.919Z,27.9320
2023-03-18T00:06:59.987Z,27.9370
2023-03-18T00:07:11.429Z,27.9570
2023-03-18T00:07:22.645Z,27.9350
2023-03-18T00:07:33.860Z,27.9180
2023-03-18T00:07:44.971Z,27.9040
2023-03-18T00:07:56.020Z,27.9160
2023-03-18T00:08:07.099Z,27.9210
2023-03-18T00:08:18.120Z,27.9130
2023-03-18T00:08:29.163Z,27.9080
2023-03-18T00:08:40.227Z,27.9130
2023-03-18T00:08:51.281Z,27.9130
2023-03-18T00:09:02.320Z,27.9130
2023-03-18T00:09:13.379Z,27.9240
2023-03-18T00:09:24.454Z,27.9290
2023-03-18T00:09:35.516Z,27.9410
2023-03-18T00:09:46.562Z,27.9290
2023-03-18T00:09:57.645Z,27.9240
2023-03-18T00:10:08.692Z,27.9210
2023-03-18T00:10:19.765Z,27.9210
2023-03-18T00:10:31.124Z,27.9290
2023-03-18T00:10:42.333Z,27.9240
2023-03-18T00:10:53.398Z,27.9240
2023-03-18T00:11:04.523Z,27.9270
2023-03-18T00:11:15.566Z,27.9480
2023-03-18T00:11:26.602Z,27.9290
2023-03-18T00:11:37.674Z,27.9240
2023-03-18T00:11:48.766Z,27.9320
2023-03-18T00:11:59.821Z,27.9270
2023-03-18T00:12:10.853Z,27.9370
2023-03-18T00:12:21.927Z,27.9530
2023-03-18T00:12:33.020Z,27.9270
2023-03-18T00:12:44.070Z,27.9320
2023-03-18T00:12:55.148Z,27.9420
2023-03-18T00:13:06.212Z,27.9480
2023-03-18T00:13:17.268Z,27.9270
2023-03-18T00:13:28.329Z,27.9270
2023-03-18T00:13:39.393Z,27.9240
2023-03-18T00:13:50.448Z,27.9470
2023-03-18T00:14:01.493Z,27.9410
2023-03-18T00:14:12.560Z,27.9240
2023-03-18T00:14:23.630Z,27.9410
2023-03-18T00:14:34.690Z,27.9180
2023-03-18T00:14:45.755Z,27.9290
2023-03-18T00:14:56.812Z,27.9130
2023-03-18T00:15:07.863Z,27.9180
2023-03-18T00:15:18.921Z,27.9240
2023-03-18T00:15:29.963Z,27.9080
2023-03-18T00:15:41.056Z,27.9130
2023-03-18T00:15:52.186Z,27.9180
2023-03-18T00:16:03.252Z,27.9130
2023-03-18T00:16:14.337Z,27.9180
2023-03-18T00:16:25.551Z,27.9130
2023-03-18T00:16:36.650Z,27.9180
2023-03-18T00:16:47.678Z,27.9080
2023-03-18T00:16:58.740Z,27.8970
2023-03-18T00:17:09.786Z,27.9080
2023-03-18T00:17:20.832Z,27.9020
2023-03-18T00:17:31.889Z,27.9020
2023-03-18T00:17:42.941Z,27.8970
2023-03-18T00:17:53.981Z,27.8970
2023-03-18T00:18:05.091Z,27.8970
2023-03-18T00:18:16.165Z,27.9020
2023-03-18T00:18:27.244Z,27.9130
2023-03-18T00:18:38.309Z,27.9020
2023-03-18T00:18:49.362Z,27.9180
2023-03-18T00:19:00.400Z,27.9240
2023-03-18T00:19:11.464Z,27.9240
2023-03-18T00:19:22.528Z,27.9080
2023-03-18T00:19:33.610Z,27.9130
2023-03-18T00:19:44.649Z,27.9240
2023-03-18T00:19:55.741Z,27.9180
2023-03-18T00:20:06.794Z,27.9180
2023-03-18T00:20:17.838Z,27.9350
2023-03-18T00:20:28.986Z,27.9350
2023-03-18T00:20:40.077Z,27.9470
2023-03-18T00:20:51.137Z,27.9620
2023-03-18T00:21:02.174Z,27.9690
2023-03-18T00:21:13.259Z,27.9750
2023-03-18T00:21:24.303Z,27.9750
2023-03-18T00:21:35.360Z,27.9580
2023-03-18T00:21:46.435Z,27.9640
2023-03-18T00:21:57.479Z,27.9680
2023-03-18T00:22:08.532Z,27.9570
2023-03-18T00:22:19.581Z,27.9410
2023-03-18T00:22:30.637Z,27.9520
2023-03-18T00:22:41.709Z,27.9290
2023-03-18T00:22:52.762Z,27.9290
2023-03-18T00:23:03.847Z,27.9410
2023-03-18T00:23:14.940Z,27.9520
2023-03-18T00:23:25.980Z,27.9570
2023-03-18T00:23:37.045Z,27.9520
2023-03-18T00:23:48.113Z,27.9570
2023-03-18T00:23:59.170Z,27.9520
2023-03-18T00:24:10.239Z,27.9690
2023-03-18T00:24:21.318Z,27.9580
2023-03-18T00:24:32.369Z,27.9640
2023-03-18T00:24:43.454Z,27.9850
2023-03-18T00:24:54.500Z,27.9890
2023-03-18T00:25:05.542Z,27.9950
2023-03-18T00:25:16.589Z,27.9890
2023-03-18T00:25:27.646Z,28.0000
2023-03-18T00:25:38.704Z,28.0000
2023-03-18T00:25:49.778Z,28.0050
2023-03-18T00:26:00.830Z,28.0110
2023-03-18T00:26:11.894Z,28.0050
2023-03-18T00:26:22.928Z,28.0170
2023-03-18T00:26:33.976Z,28.0330
2023-03-18T00:26:45.028Z,28.0230
2023-03-18T00:26:56.073Z,28.0280
2023-03-18T00:27:07.111Z,28.0440
2023-03-18T00:27:18.184Z,28.0440
2023-03-18T00:27:29.249Z,28.0390
2023-03-18T00:27:40.318Z,28.0390
2023-03-18T00:27:51.350Z,28.0390
2023-03-18T00:28:02.410Z,28.0440
2023-03-18T00:28:13.494Z,28.0550
2023-03-18T00:28:24.593Z,28.0650
2023-03-18T00:28:35.658Z,28.0490
2023-03-18T00:28:46.712Z,28.0390
2023-03-18T00:28:57.784Z,28.0440
2023-03-18T00:29:08.862Z,28.0550
2023-03-18T00:29:19.884Z,28.0490
2023-03-18T00:29:30.938Z,28.0440
2023-03-18T00:29:42.002Z,28.0490
2023-03-18T00:29:53.051Z,28.0440
2023-03-18T00:30:04.112Z,28.0330
2023-03-18T00:30:15.144Z,28.0490
2023-03-18T00:30:26.222Z,28.0490
2023-03-18T00:30:37.289Z,28.0440
2023-03-18T00:30:48.341Z,28.0600
2023-03-18T00:30:59.476Z,28.0550
2023-03-18T00:31:10.525Z,28.0490
2023-03-18T00:31:21.617Z,28.0550
2023-03-18T00:31:32.778Z,28.0650
2023-03-18T00:31:43.910Z,28.0710
2023-03-18T00:31:54.943Z,28.0550
2023-03-18T00:32:06.060Z,28.0600
2023-03-18T00:32:17.114Z,28.0760
2023-03-18T00:32:28.227Z,28.0550
2023-03-18T00:32:39.399Z,28.0650
2023-03-18T00:32:50.465Z,28.0650
2023-03-18T00:33:01.587Z,28.0600
2023-03-18T00:33:12.769Z,28.0990
2023-03-18T00:33:23.809Z,28.0930
2023-03-18T00:33:34.892Z,28.0990
2023-03-18T00:33:46.057Z,28.0990
2023-03-18T00:33:57.081Z,28.0870
2023-03-18T00:34:08.164Z,28.0990
2023-03-18T00:34:19.210Z,28.0870
2023-03-18T00:34:30.266Z,28.0870
2023-03-18T00:34:41.321Z,28.0930
2023-03-18T00:34:52.385Z,28.0760
2023-03-18T00:35:03.434Z,28.0650
2023-03-18T00:35:14.506Z,28.0560
2023-03-18T00:35:25.586Z,28.0620
2023-03-18T00:35:36.679Z,28.0560
2023-03-18T00:35:47.789Z,28.0560
2023-03-18T00:35:58.890Z,28.0560
2023-03-18T00:36:10.013Z,28.0510
2023-03-18T00:36:21.192Z,28.0560
2023-03-18T00:36:32.272Z,28.0730
2023-03-18T00:36:43.312Z,28.0620
2023-03-18T00:36:54.404Z,28.0550
2023-03-18T00:37:05.451Z,28.0760
2023-03-18T00:37:16.523Z,28.0710
2023-03-18T00:37:27.572Z,28.0760
2023-03-18T00:37:38.612Z,28.0790
2023-03-18T00:37:49.693Z,28.0620
2023-03-18T00:38:00.688Z,28.0620
2023-03-18T00:38:11.747Z,28.0510
2023-03-18T00:38:22.817Z,28.0560
2023-03-18T00:38:33.853Z,28.0450
2023-03-18T00:38:44.960Z,28.0510
2023-03-18T00:38:56.025Z,28.0510
2023-03-18T00:39:07.119Z,28.0560
2023-03-18T00:39:18.152Z,28.0450
2023-03-18T00:39:29.210Z,28.0510
2023-03-18T00:39:40.284Z,28.0510
2023-03-18T00:39:51.340Z,28.0400
2023-03-18T00:40:02.400Z,28.0400
2023-03-18T00:40:13.450Z,28.0510
2023-03-18T00:40:24.508Z,28.0450
2023-03-18T00:40:35.559Z,28.0400
2023-03-18T00:40:46.638Z,28.0290
2023-03-18T00:40:57.672Z,28.0450
2023-03-18T00:41:08.753Z,28.0450
2023-03-18T00:41:19.812Z,28.0490
2023-03-18T00:41:30.877Z,28.0490
2023-03-18T00:41:41.936Z,28.0390
2023-03-18T00:41:53.005Z,28.0490
2023-03-18T00:42:04.070Z,28.0490
2023-03-18T00:42:15.156Z,28.0440
2023-03-18T00:42:26.188Z,28.0440
2023-03-18T00:42:37.255Z,28.0330
2023-03-18T00:42:48.311Z,28.0390
2023-03-18T00:42:59.379Z,28.0390
2023-03-18T00:43:10.441Z,28.0330
2023-03-18T00:43:21.504Z,28.0390
2023-03-18T00:43:32.549Z,28.0490
2023-03-18T00:43:43.613Z,28.0550
2023-03-18T00:43:54.686Z,28.0490
2023-03-18T00:44:05.870Z,28.0440
2023-03-18T00:44:16.937Z,28.0440
2023-03-18T00:44:28.004Z,28.0330
2023-03-18T00:44:39.060Z,28.0280
2023-03-18T00:44:50.119Z,28.0390
2023-03-18T00:45:01.201Z,28.0390
2023-03-18T00:45:12.238Z,28.0330
2023-03-18T00:45:23.271Z,28.0280
2023-03-18T00:45:34.314Z,28.0390
2023-03-18T00:45:45.382Z,28.0280
2023-03-18T00:45:56.443Z,28.0350
2023-03-18T00:46:07.489Z,28.0240
2023-03-18T00:46:18.582Z,28.0110
2023-03-18T00:46:29.709Z,28.0130
2023-03-18T00:46:40.813Z,28.0080
2023-03-18T00:46:51.949Z,28.0110
2023-03-18T00:47:03.094Z,27.9840
2023-03-18T00:47:14.188Z,27.9920
2023-03-18T00:47:25.256Z,27.9950
2023-03-18T00:47:36.280Z,27.9850
2023-03-18T00:47:47.338Z,27.9920
2023-03-18T00:47:58.397Z,27.9920
2023-03-18T00:48:09.450Z,27.9850
2023-03-18T00:48:20.530Z,27.9970
2023-03-18T00:48:31.596Z,28.0000
2023-03-18T00:48:42.665Z,28.0050
2023-03-18T00:48:53.719Z,28.0000
2023-03-18T00:49:04.857Z,27.9950
2023-03-18T00:49:15.886Z,27.9950
2023-03-18T00:49:26.928Z,27.9800
2023-03-18T00:49:37.966Z,27.9750
2023-03-18T00:49:49.020Z,27.9690
2023-03-18T00:50:00.077Z,27.9690
2023-03-18T00:50:11.152Z,27.9480
2023-03-18T00:50:22.195Z,27.9530
2023-03-18T00:50:33.552Z,27.9580
2023-03-18T00:50:44.876Z,27.9640
2023-03-18T00:50:55.968Z,27.9530
2023-03-18T00:51:07.041Z,27.9640
2023-03-18T00:51:18.079Z,27.9530
2023-03-18T00:51:29.152Z,27.9480
2023-03-18T00:51:40.209Z,27.9530
2023-03-18T00:51:51.285Z,27.9490
2023-03-18T00:52:02.369Z,27.9380
2023-03-18T00:52:13.404Z,27.9380
2023-03-18T00:52:24.496Z,27.9380
2023-03-18T00:52:35.560Z,27.9220
2023-03-18T00:52:46.620Z,27.9330
2023-03-18T00:52:57.670Z,27.9440
2023-03-18T00:53:08.763Z,27.9380
2023-03-18T00:53:19.855Z,27.9280
2023-03-18T00:53:30.884Z,27.9280
2023-03-18T00:53:41.950Z,27.9370
2023-03-18T00:53:52.999Z,27.9530
2023-03-18T00:54:04.053Z,27.9420
2023-03-18T00:54:15.150Z,27.9440
2023-03-18T00:54:26.200Z,27.9330
2023-03-18T00:54:37.248Z,27.9490
2023-03-18T00:54:48.305Z,27.9530
2023-03-18T00:54:59.371Z,27.9530
2023-03-18T00:55:10.607Z,27.9480
2023-03-18T00:55:21.643Z,27.9580
2023-03-18T00:55:32.701Z,27.9370
2023-03-18T00:55:43.729Z,27.9490
2023-03-18T00:55:54.779Z,27.9330
2023-03-18T00:56:05.814Z,27.9380
2023-03-18T00:56:16.878Z,27.9280
2023-03-18T00:56:27.930Z,27.9380
2023-03-18T00:56:38.992Z,27.9280
2023-03-18T00:56:50.084Z,27.9170
2023-03-18T00:57:01.128Z,27.9280
2023-03-18T00:57:12.182Z,27.9220
2023-03-18T00:57:23.300Z,27.9380
2023-03-18T00:57:34.337Z,27.9220
2023-03-18T00:57:45.393Z,27.9170
2023-03-18T00:57:56.499Z,27.9220
2023-03-18T00:58:07.505Z,27.9170
2023-03-18T00:58:18.579Z,27.9170
2023-03-18T00:58:29.644Z,27.9280
2023-03-18T00:58:40.688Z,27.9220
2023-03-18T00:58:51.763Z,27.9440
2023-03-18T00:59:02.821Z,27.9380
2023-03-18T00:59:13.874Z,27.9370
2023-03-18T00:59:24.979Z,27.9320
2023-03-18T00:59:36.039Z,27.9210
2023-03-18T00:59:47.081Z,27.9320
2023-03-18T00:59:58.123Z,27.9420
2023-03-18T01:00:09.182Z,27.9480
2023-03-18T01:00:20.243Z,27.9420
2023-03-18T01:00:31.921Z,27.9420
2023-03-18T01:00:43.320Z,27.9640
2023-03-18T01:00:54.518Z,27.9640
2023-03-18T01:01:05.619Z,27.9530
2023-03-18T01:01:16.735Z,27.9580
2023-03-18T01:01:27.835Z,27.9580
2023-03-18T01:01:39.162Z,27.9690
2023-03-18T01:01:50.343Z,27.9800
2023-03-18T01:02:01.424Z,27.9920
2023-03-18T01:02:12.519Z,28.0020
2023-03-18T01:02:23.627Z,27.9920
2023-03-18T01:02:34.731Z,27.9690
2023-03-18T01:02:45.799Z,27.9640
2023-03-18T01:02:56.859Z,27.9530
2023-03-18T01:03:07.913Z,27.9530
2023-03-18T01:03:18.983Z,27.9480
2023-03-18T01:03:30.030Z,27.9580
2023-03-18T01:03:41.103Z,27.9850
2023-03-18T01:03:52.150Z,28.0020
2023-03-18T01:04:03.212Z,27.9920
2023-03-18T01:04:14.271Z,27.9920
2023-03-18T01:04:25.383Z,27.9920
2023-03-18T01:04:36.450Z,28.0020
2023-03-18T01:04:47.483Z,28.0020
2023-03-18T01:04:58.549Z,28.0080
2023-03-18T01:05:09.631Z,28.0080
2023-03-18T01:05:20.681Z,27.9920
2023-03-18T01:05:31.725Z,28.0050
2023-03-18T01:05:42.779Z,28.0000
2023-03-18T01:05:53.803Z,28.0000
2023-03-18T01:06:04.843Z,28.0110
2023-03-18T01:06:15.901Z,28.0230
2023-03-18T01:06:26.962Z,28.0240
2023-03-18T01:06:38.016Z,28.0240
2023-03-18T01:06:49.082Z,28.0240
2023-03-18T01:07:00.151Z,28.0350
2023-03-18T01:07:11.239Z,28.0230
2023-03-18T01:07:22.270Z,28.0330
2023-03-18T01:07:33.334Z,28.0330
2023-03-18T01:07:44.382Z,28.0390
2023-03-18T01:07:55.440Z,28.0390
2023-03-18T01:08:06.519Z,28.0330
2023-03-18T01:08:17.564Z,28.0390
2023-03-18T01:08:28.633Z,28.0650
2023-03-18T01:08:39.738Z,28.0820
2023-03-18T01:08:50.786Z,28.0870
2023-03-18T01:09:01.842Z,28.0650
2023-03-18T01:09:12.880Z,28.0710
2023-03-18T01:09:23.942Z,28.0600
2023-03-18T01:09:35.054Z,28.0550
2023-03-18T01:09:46.094Z,28.0490
2023-03-18T01:09:57.175Z,28.0490
2023-03-18T01:10:08.204Z,28.0490
2023-03-18T01:10:19.241Z,28.0620
2023-03-18T01:10:30.711Z,28.0620
2023-03-18T01:10:42.004Z,28.0760
2023-03-18T01:10:53.054Z,28.0710
2023-03-18T01:11:04.128Z,28.0680
2023-03-18T01:11:15.186Z,28.0490
2023-03-18T01:11:26.267Z,28.0510
2023-03-18T01:11:37.331Z,28.0620
2023-03-18T01:11:48.397Z,28.0450
2023-03-18T01:11:59.411Z,28.0620
2023-03-18T01:12:10.484Z,28.0650
2023-03-18T01:12:21.520Z,28.0600
2023-03-18T01:12:32.589Z,28.0680
2023-03-18T01:12:43.662Z,28.0620
2023-03-18T01:12:55.982Z,28.0790
2023-03-18T01:13:07.122Z,28.1270
2023-03-18T01:13:18.187Z,28.1150
2023-03-18T01:13:29.248Z,28.1050
2023-03-18T01:13:40.298Z,28.1110
2023-03-18T01:13:51.378Z,28.1000
2023-03-18T01:14:02.444Z,28.0950
2023-03-18T01:14:13.488Z,28.1000
2023-03-18T01:14:24.546Z,28.0900
2023-03-18T01:14:35.603Z,28.0950
2023-03-18T01:14:46.664Z,28.0950
2023-03-18T01:14:57.779Z,28.0950
2023-03-18T01:15:08.846Z,28.1000
2023-03-18T01:15:19.893Z,28.1000
2023-03-18T01:15:30.935Z,28.1040
2023-03-18T01:15:42.015Z,28.1200
2023-03-18T01:15:53.053Z,28.1100
2023-03-18T01:16:04.162Z,28.1100
2023-03-18T01:16:15.297Z,28.0990
2023-03-18T01:16:26.504Z,28.0990
2023-03-18T01:16:37.653Z,28.0990
2023-03-18T01:16:48.741Z,28.0870
2023-03-18T01:16:59.842Z,28.0950
2023-03-18T01:17:10.897Z,28.1000
2023-03-18T01:17:22.003Z,28.0680
2023-03-18T01:17:33.019Z,28.0900
2023-03-18T01:17:44.044Z,28.0840
2023-03-18T01:17:55.130Z,28.0730
2023-03-18T01:18:06.182Z,28.0680
2023-03-18T01:18:17.266Z,28.0990
2023-03-18T01:18:28.322Z,28.0650
2023-03-18T01:18:39.400Z,28.0730
2023-03-18T01:18:50.462Z,28.0840
2023-03-18T01:19:01.522Z,28.0840
2023-03-18T01:19:12.586Z,28.0900
2023-03-18T01:19:23.661Z,28.1000
2023-03-18T01:19:34.729Z,28.1050
2023-03-18T01:19:45.811Z,28.0790
2023-03-18T01:19:56.874Z,28.0840
2023-03-18T01:20:07.937Z,28.0950
2023-03-18T01:20:19.013Z,28.0900
2023-03-18T01:20:30.443Z,28.0900
2023-03-18T01:20:41.696Z,28.1160
2023-03-18T01:20:52.759Z,28.0900
2023-03-18T01:21:03.848Z,28.1000
2023-03-18T01:21:14.892Z,28.0680
2023-03-18T01:21:25.951Z,28.0950
2023-03-18T01:21:37.003Z,28.0950
2023-03-18T01:21:48.062Z,28.1050
2023-03-18T01:21:59.134Z,28.0950
2023-03-18T01:22:10.206Z,28.0950
2023-03-18T01:22:21.257Z,28.0900
2023-03-18T01:22:32.295Z,28.0840
2023-03-18T01:22:43.376Z,28.0730
2023-03-18T01:22:54.420Z,28.0730
2023-03-18T01:23:05.478Z,28.0950
2023-03-18T01:23:16.526Z,28.0950
2023-03-18T01:23:27.583Z,28.1000
2023-03-18T01:23:38.649Z,28.0730
2023-03-18T01:23:49.688Z,28.0900
2023-03-18T01:24:00.805Z,28.0840
2023-03-18T01:24:11.905Z,28.0840
2023-03-18T01:24:22.969Z,28.0790
2023-03-18T01:24:34.016Z,28.0840
2023-03-18T01:24:45.117Z,28.1050
2023-03-18T01:24:56.182Z,28.1000
2023-03-18T01:25:07.249Z,28.1000
2023-03-18T01:25:18.316Z,28.0840
2023-03-18T01:25:29.349Z,28.0680
2023-03-18T01:25:40.387Z,28.0560
2023-03-18T01:25:51.442Z,28.0560
2023-03-18T01:26:02.511Z,28.0510
2023-03-18T01:26:13.542Z,28.0510
2023-03-18T01:26:24.590Z,28.0450
2023-03-18T01:26:35.653Z,28.0400
2023-03-18T01:26:46.715Z,28.0510
2023-03-18T01:26:57.807Z,28.0510
2023-03-18T01:27:08.845Z,28.0620
2023-03-18T01:27:19.912Z,28.0680
2023-03-18T01:27:30.982Z,28.0790
2023-03-18T01:27:42.063Z,28.0900
2023-03-18T01:27:53.119Z,28.0820
2023-03-18T01:28:04.178Z,28.0760
2023-03-18T01:28:15.232Z,28.0550
2023-03-18T01:28:26.283Z,28.0680
2023-03-18T01:28:37.361Z,28.0510
2023-03-18T01:28:48.436Z,28.0400
2023-03-18T01:28:59.514Z,28.0400
2023-03-18T01:29:10.585Z,28.0450
2023-03-18T01:29:21.642Z,28.0350
2023-03-18T01:29:32.716Z,28.0560
2023-03-18T01:29:43.792Z,28.0350
2023-03-18T01:29:54.870Z,28.0620
2023-03-18T01:30:05.961Z,28.0550
2023-03-18T01:30:17.024Z,28.0710
2023-03-18T01:30:28.083Z,28.0760
2023-03-18T01:30:39.347Z,28.0600
2023-03-18T01:30:50.405Z,28.0680
2023-03-18T01:31:01.462Z,28.0510
2023-03-18T01:31:12.534Z,28.0400
2023-03-18T01:31:23.632Z,28.0390
2023-03-18T01:31:34.919Z,28.0440
2023-03-18T01:31:46.041Z,28.0600
2023-03-18T01:31:57.242Z,28.0490
2023-03-18T01:32:08.402Z,28.0350
2023-03-18T01:32:19.524Z,28.0400
2023-03-18T01:32:30.662Z,28.0440
2023-03-18T01:32:41.742Z,28.0490
2023-03-18T01:32:52.813Z,28.0490
2023-03-18T01:33:03.907Z,28.0290
2023-03-18T01:33:15.122Z,28.0350
2023-03-18T01:33:26.172Z,28.0190
2023-03-18T01:33:37.216Z,28.0050
2023-03-18T01:33:48.318Z,28.0110
2023-03-18T01:33:59.344Z,28.0230
2023-03-18T01:34:10.403Z,28.0110
2023-03-18T01:34:21.481Z,28.0170
2023-03-18T01:34:32.610Z,28.0170
2023-03-18T01:34:43.828Z,28.0280
2023-03-18T01:34:54.969Z,28.0170
2023-03-18T01:35:06.147Z,28.0230
2023-03-18T01:35:17.190Z,28.0170
2023-03-18T01:35:28.274Z,28.0110
2023-03-18T01:35:39.388Z,28.0280
2023-03-18T01:35:50.542Z,28.0280
2023-03-18T01:36:01.610Z,28.0230
2023-03-18T01:36:12.812Z,28.0110
2023-03-18T01:36:23.911Z,28.0170
2023-03-18T01:36:34.999Z,28.0110
2023-03-18T01:36:46.059Z,27.9970
2023-03-18T01:36:57.109Z,27.9970
2023-03-18T01:37:08.205Z,27.9970
2023-03-18T01:37:19.226Z,27.9920
2023-03-18T01:37:30.312Z,28.0020
2023-03-18T01:37:41.341Z,28.0130
2023-03-18T01:37:52.431Z,28.0290
2023-03-18T01:38:03.491Z,28.0290
2023-03-18T01:38:14.572Z,28.0240
2023-03-18T01:38:25.646Z,28.0290
2023-03-18T01:38:36.701Z,28.0240
2023-03-18T01:38:47.745Z,28.0240
2023-03-18T01:38:58.803Z,28.0240
2023-03-18T01:39:09.861Z,28.0130
2023-03-18T01:39:20.919Z,28.0020
2023-03-18T01:39:31.993Z,28.0020
2023-03-18T01:39:43.042Z,27.9850
2023-03-18T01:39:54.101Z,27.9800
2023-03-18T01:40:05.163Z,27.9800
2023-03-18T01:40:16.269Z,27.9770
2023-03-18T01:40:27.304Z,27.9830
2023-03-18T01:40:38.354Z,27.9640
2023-03-18T01:40:49.400Z,27.9660
2023-03-18T01:41:00.483Z,27.9660
2023-03-18T01:41:11.663Z,27.9750
2023-03-18T01:41:22.740Z,27.9850
2023-03-18T01:41:33.804Z,27.9850
2023-03-18T01:41:44.860Z,27.9800
2023-03-18T01:41:55.891Z,27.9880
2023-03-18T01:42:06.971Z,27.9880
2023-03-18T01:42:18.044Z,27.9660
2023-03-18T01:42:29.124Z,27.9660
2023-03-18T01:42:40.162Z,27.9550
2023-03-18T01:42:51.239Z,27.9550
2023-03-18T01:43:02.302Z,27.9600
2023-03-18T01:43:13.386Z,27.9600
2023-03-18T01:43:24.429Z,27.9660
2023-03-18T01:43:35.500Z,27.9720
2023-03-18T01:43:46.567Z,27.9830
2023-03-18T01:43:57.628Z,27.9720
2023-03-18T01:44:08.697Z,27.9720
2023-03-18T01:44:19.748Z,27.9770
2023-03-18T01:44:30.815Z,27.9720
2023-03-18T01:44:41.867Z,27.9660
2023-03-18T01:44:52.944Z,27.9720
2023-03-18T01:45:04.007Z,27.9690
2023-03-18T01:45:15.077Z,27.9800
2023-03-18T01:45:26.185Z,27.9770
2023-03-18T01:45:37.247Z,27.9770
2023-03-18T01:45:48.401Z,27.9930
2023-03-18T01:45:59.506Z,27.9880
2023-03-18T01:46:10.589Z,27.9880
2023-03-18T01:46:21.642Z,27.9830
2023-03-18T01:46:32.694Z,27.9880
2023-03-18T01:46:43.744Z,27.9720
2023-03-18T01:46:54.809Z,27.9720
2023-03-18T01:47:05.883Z,27.9770
2023-03-18T01:47:16.941Z,27.9830
2023-03-18T01:47:27.960Z,27.9770
2023-03-18T01:47:39.024Z,27.9720
2023-03-18T01:47:50.089Z,27.9660
2023-03-18T01:48:01.160Z,27.9600
2023-03-18T01:48:12.214Z,27.9720
2023-03-18T01:48:23.240Z,27.9550
2023-03-18T01:48:34.288Z,27.9600
2023-03-18T01:48:45.337Z,27.9600
2023-03-18T01:48:56.400Z,27.9660
2023-03-18T01:49:07.451Z,27.9720
2023-03-18T01:49:18.546Z,27.9770
2023-03-18T01:49:29.612Z,27.9720
2023-03-18T01:49:40.670Z,27.9660
2023-03-18T01:49:51.726Z,27.9600
2023-03-18T01:50:02.790Z,27.9550
2023-03-18T01:50:14.067Z,27.9440
2023-03-18T01:50:25.123Z,27.9550
2023-03-18T01:50:36.209Z,27.9660
2023-03-18T01:50:47.254Z,27.9600
2023-03-18T01:50:58.317Z,27.9550
2023-03-18T01:51:09.389Z,27.9660
2023-03-18T01:51:20.445Z,27.9600
2023-03-18T01:51:31.480Z,27.9770
2023-03-18T01:51:42.539Z,27.9770
2023-03-18T01:51:53.608Z,27.9720
2023-03-18T01:52:04.651Z,27.9660
2023-03-18T01:52:15.733Z,27.9600
2023-03-18T01:52:26.778Z,27.9550
2023-03-18T01:52:37.831Z,27.9550
2023-03-18T01:52:48.878Z,27.9550
2023-03-18T01:52:59.956Z,27.9490
2023-03-18T01:53:11.019Z,27.9330
2023-03-18T01:53:22.083Z,27.9330
2023-03-18T01:53:33.172Z,27.9380
2023-03-18T01:53:44.224Z,27.9490
2023-03-18T01:53:55.268Z,27.9490
2023-03-18T01:54:06.327Z,27.9550
2023-03-18T01:54:17.366Z,27.9380
2023-03-18T01:54:28.463Z,27.9330
2023-03-18T01:54:39.508Z,27.9440
2023-03-18T01:54:50.563Z,27.9380
2023-03-18T01:55:01.633Z,27.9380
2023-03-18T01:55:12.695Z,27.9490
2023-03-18T01:55:23.755Z,27.9350
2023-03-18T01:55:34.807Z,27.9240
2023-03-18T01:55:45.896Z,27.9490
2023-03-18T01:55:56.959Z,27.9600
2023-03-18T01:56:08.037Z,27.9660
2023-03-18T01:56:19.087Z,27.9660
2023-03-18T01:56:30.152Z,27.9720
2023-03-18T01:56:41.186Z,27.9830
2023-03-18T01:56:52.255Z,27.9660
2023-03-18T01:57:03.317Z,27.9720
2023-03-18T01:57:14.379Z,27.9660
2023-03-18T01:57:25.448Z,27.9720
2023-03-18T01:57:36.525Z,27.9660
2023-03-18T01:57:47.576Z,27.9490
2023-03-18T01:57:58.614Z,27.9550
2023-03-18T01:58:09.650Z,27.9380
2023-03-18T01:58:20.747Z,27.9550
2023-03-18T01:58:31.793Z,27.9440
2023-03-18T01:58:42.860Z,27.9520
2023-03-18T01:58:53.938Z,27.9520
2023-03-18T01:59:04.997Z,27.9380
2023-03-18T01:59:16.039Z,27.9380
2023-03-18T01:59:27.091Z,27.9490
2023-03-18T01:59:38.147Z,27.9380
2023-03-18T01:59:49.225Z,27.9440
2023-03-18T02:00:00.273Z,27.9330
2023-03-18T02:00:11.333Z,27.9330
2023-03-18T02:00:22.389Z,27.9380
2023-03-18T02:00:33.664Z,27.9280
2023-03-18T02:00:44.947Z,27.9380
2023-03-18T02:00:56.103Z,27.9490
2023-03-18T02:01:07.226Z,27.9520
2023-03-18T02:01:18.312Z,27.9330
2023-03-18T02:01:29.401Z,27.9380
2023-03-18T02:01:40.500Z,27.9330
2023-03-18T02:01:51.588Z,27.9380
2023-03-18T02:02:02.666Z,27.9550
2023-03-18T02:02:13.721Z,27.9380
2023-03-18T02:02:24.774Z,27.9330
2023-03-18T02:02:35.826Z,27.9440
2023-03-18T02:02:46.879Z,27.9380
2023-03-18T02:02:57.937Z,27.9440
2023-03-18T02:03:09.002Z,27.9600
2023-03-18T02:03:20.047Z,27.9440
2023-03-18T02:03:31.096Z,27.9550
2023-03-18T02:03:42.185Z,27.9490
2023-03-18T02:03:53.251Z,27.9550
2023-03-18T02:04:04.296Z,27.9490
2023-03-18T02:04:15.376Z,27.9550
2023-03-18T02:04:26.434Z,27.9490
2023-03-18T02:04:37.484Z,27.9490
2023-03-18T02:04:48.545Z,27.9550
2023-03-18T02:04:59.612Z,27.9490
2023-03-18T02:05:10.646Z,27.9380
2023-03-18T02:05:21.706Z,27.9380
2023-03-18T02:05:32.779Z,27.9330
2023-03-18T02:05:43.866Z,27.9330
2023-03-18T02:05:54.924Z,27.9280
2023-03-18T02:06:06.002Z,27.9220
2023-03-18T02:06:17.047Z,27.9170
2023-03-18T02:06:28.085Z,27.9080
2023-03-18T02:06:39.157Z,27.9080
2023-03-18T02:06:50.219Z,27.9060
2023-03-18T02:07:01.275Z,27.9020
2023-03-18T02:07:12.337Z,27.9130
2023-03-18T02:07:23.386Z,27.9020
2023-03-18T02:07:34.442Z,27.9080
2023-03-18T02:07:45.514Z,27.9020
2023-03-18T02:07:56.563Z,27.9020
2023-03-18T02:08:07.598Z,27.8920
2023-03-18T02:08:18.653Z,27.9090
2023-03-18T02:08:29.713Z,27.8980
2023-03-18T02:08:40.767Z,27.8980
2023-03-18T02:08:51.827Z,27.9040
2023-03-18T02:09:02.882Z,27.8980
2023-03-18T02:09:13.966Z,27.8980
2023-03-18T02:09:25.027Z,27.8930
2023-03-18T02:09:36.089Z,27.8930
2023-03-18T02:09:47.177Z,27.9090
2023-03-18T02:09:58.221Z,27.9040
2023-03-18T02:10:09.280Z,27.9090
2023-03-18T02:10:20.357Z,27.8980
2023-03-18T02:10:31.710Z,27.8880
2023-03-18T02:10:42.950Z,27.9040
2023-03-18T02:10:53.998Z,27.8980
2023-03-18T02:11:05.053Z,27.9040
2023-03-18T02:11:16.141Z,27.8820
2023-03-18T02:11:27.218Z,27.8930
2023-03-18T02:11:38.325Z,27.8880
2023-03-18T02:11:49.390Z,27.8820
2023-03-18T02:12:00.417Z,27.8880
2023-03-18T02:12:11.496Z,27.9210
2023-03-18T02:12:22.551Z,27.9130
2023-03-18T02:12:33.660Z,27.9180
2023-03-18T02:12:44.712Z,27.9130
2023-03-18T02:12:55.780Z,27.9080
2023-03-18T02:13:06.820Z,27.9080
2023-03-18T02:13:18.892Z,27.9080
2023-03-18T02:13:29.993Z,27.9180
2023-03-18T02:13:41.053Z,27.9080
2023-03-18T02:13:52.115Z,27.8920
2023-03-18T02:14:03.178Z,27.8920